createdAt,value
2023-05-06T00:02:24.294Z,100030.56
2023-05-06T00:04:52.982Z,100025.59
2023-05-06T00:07:19.957Z,100030.03
2023-05-06T00:09:47.098Z,100025.69
2023-05-06T00:12:14.078Z,100032.16
2023-05-06T00:14:41.012Z,100031.81
2023-05-06T00:17:08.199Z,100025.22
2023-05-06T00:19:34.973Z,100023.63
2023-05-06T00:22:01.801Z,100014.31
2023-05-06T00:24:28.628Z,100015.91
2023-05-06T00:26:55.508Z,100026.78
2023-05-06T00:29:22.393Z,100020.19
2023-05-06T00:31:49.270Z,100013.00
2023-05-06T00:34:16.344Z,100020.16
2023-05-06T00:36:43.188Z,100018.78
2023-05-06T00:39:10.681Z,100019.34
2023-05-06T00:41:37.527Z,100015.84
2023-05-06T00:44:04.397Z,100009.19
2023-05-06T00:46:31.253Z,100025.88
2023-05-06T00:48:58.582Z,100028.72
2023-05-06T00:51:26.158Z,100026.78
2023-05-06T00:53:53.092Z,100025.56
2023-05-06T00:56:20.866Z,100020.78
2023-05-06T00:58:48.857Z,100023.97
2023-05-06T01:01:15.825Z,100017.16
2023-05-06T01:03:42.800Z,100023.81
2023-05-06T01:06:12.769Z,100024.44
2023-05-06T01:09:11.606Z,100025.16
2023-05-06T01:11:56.898Z,100023.88
2023-05-06T01:14:36.393Z,100025.25
2023-05-06T01:17:10.893Z,100022.28
2023-05-06T01:19:46.814Z,100022.06
2023-05-06T01:22:15.706Z,100024.25
2023-05-06T01:24:45.182Z,100015.31
2023-05-06T01:27:14.205Z,100008.84
2023-05-06T01:29:44.207Z,100002.94
2023-05-06T01:32:23.039Z,100005.63
2023-05-06T01:35:14.730Z,100031.75
2023-05-06T01:37:44.345Z,100057.44
2023-05-06T01:40:14.920Z,100073.41
2023-05-06T01:42:42.172Z,100077.41
2023-05-06T01:45:10.127Z,100068.78
2023-05-06T01:47:40.992Z,100066.25
2023-05-06T01:50:08.417Z,100067.25
2023-05-06T01:52:35.316Z,100082.69
2023-05-06T01:55:02.159Z,100081.44
2023-05-06T01:57:30.333Z,100087.47
2023-05-06T01:59:57.171Z,100089.50
2023-05-06T02:02:24.504Z,100084.28
2023-05-06T02:04:53.635Z,100083.50
2023-05-06T02:07:21.168Z,100083.50
2023-05-06T02:09:47.992Z,100078.13
2023-05-06T02:12:16.090Z,100074.88
2023-05-06T02:14:44.835Z,100076.25
2023-05-06T02:17:11.812Z,100070.00
2023-05-06T02:19:38.691Z,100056.34
2023-05-06T02:22:05.896Z,100054.00
2023-05-06T02:24:32.750Z,100055.00
2023-05-06T02:26:59.621Z,100057.19
2023-05-06T02:29:26.514Z,100056.03
2023-05-06T02:31:53.376Z,100059.22
2023-05-06T02:34:20.206Z,100047.19
2023-05-06T02:36:47.033Z,100057.03
2023-05-06T02:39:15.542Z,100070.81
2023-05-06T02:41:42.357Z,100058.09
2023-05-06T02:44:09.181Z,100058.25
2023-05-06T02:46:36.082Z,100055.00
2023-05-06T02:49:02.885Z,100048.69
2023-05-06T02:51:29.988Z,100051.97
2023-05-06T02:53:56.806Z,100059.75
2023-05-06T02:56:23.668Z,100051.47
2023-05-06T02:58:50.604Z,100054.63
2023-05-06T03:01:17.460Z,100056.84
2023-05-06T03:03:44.415Z,100054.44
2023-05-06T03:06:11.470Z,100048.44
2023-05-06T03:08:39.254Z,100039.81
2023-05-06T03:11:08.187Z,100043.53
2023-05-06T03:13:35.779Z,100047.66
2023-05-06T03:16:03.049Z,100040.84
2023-05-06T03:18:30.731Z,100046.06
2023-05-06T03:20:57.601Z,100035.63
2023-05-06T03:23:24.997Z,100045.06
2023-05-06T03:25:51.855Z,100039.84
2023-05-06T03:28:20.039Z,100042.44
2023-05-06T03:30:47.750Z,100042.88
2023-05-06T03:33:14.985Z,100036.63
2023-05-06T03:35:42.792Z,100041.44
2023-05-06T03:38:09.689Z,100041.22
2023-05-06T03:40:50.213Z,100034.63
2023-05-06T03:43:17.444Z,100039.16
2023-05-06T03:45:47.645Z,100035.75
2023-05-06T03:48:14.868Z,100034.50
2023-05-06T03:50:44.226Z,100030.41
2023-05-06T03:53:13.324Z,100028.16
2023-05-06T03:55:42.469Z,100036.22
2023-05-06T03:58:12.533Z,100030.06
2023-05-06T04:00:41.650Z,100030.84
2023-05-06T04:03:08.611Z,100040.50
2023-05-06T04:05:42.360Z,100038.47
2023-05-06T04:08:11.667Z,100045.25
2023-05-06T04:10:40.433Z,100045.84
2023-05-06T04:13:14.336Z,100044.84
2023-05-06T04:15:44.020Z,100052.78
2023-05-06T04:18:19.975Z,100049.63
2023-05-06T04:20:55.929Z,100054.63
2023-05-06T04:23:22.917Z,100057.47
2023-05-06T04:25:50.618Z,100058.03
2023-05-06T04:28:22.175Z,100054.53
2023-05-06T04:30:51.733Z,100047.16
2023-05-06T04:33:23.082Z,100046.25
2023-05-06T04:35:54.234Z,100045.69
2023-05-06T04:38:25.881Z,100054.72
2023-05-06T04:40:55.559Z,100050.84
2023-05-06T04:43:22.820Z,100047.28
2023-05-06T04:45:55.738Z,100051.88
2023-05-06T04:48:27.031Z,100055.59
2023-05-06T04:50:57.418Z,100054.09
2023-05-06T04:53:24.614Z,100051.97
2023-05-06T04:55:51.461Z,100054.47
2023-05-06T04:58:19.689Z,100060.91
2023-05-06T05:00:47.419Z,100054.31
2023-05-06T05:03:14.482Z,100058.66
2023-05-06T05:05:42.055Z,100058.66
2023-05-06T05:08:15.391Z,100063.19
2023-05-06T05:10:46.030Z,100059.63
2023-05-06T05:13:17.436Z,100055.56
2023-05-06T05:15:52.115Z,100071.81
2023-05-06T05:18:24.553Z,100073.84
2023-05-06T05:20:57.803Z,100065.72
2023-05-06T05:23:26.239Z,100062.31
2023-05-06T05:25:53.206Z,100062.31
2023-05-06T05:28:21.417Z,100062.31
2023-05-06T05:30:50.475Z,100072.53
2023-05-06T05:33:21.118Z,100068.81
2023-05-06T05:35:52.817Z,100058.91
2023-05-06T05:38:20.369Z,100071.28
2023-05-06T05:40:47.175Z,100076.41
2023-05-06T05:43:14.309Z,100075.28
2023-05-06T05:45:42.619Z,100074.28
2023-05-06T05:48:11.030Z,100074.94
2023-05-06T05:50:39.193Z,100083.31
2023-05-06T05:53:06.660Z,100077.78
2023-05-06T05:55:36.220Z,100081.97
2023-05-06T05:58:03.091Z,100084.38
2023-05-06T06:00:31.146Z,100092.97
2023-05-06T06:03:07.088Z,100091.41
2023-05-06T06:05:34.027Z,100085.03
2023-05-06T06:08:03.538Z,100084.13
2023-05-06T06:10:31.318Z,100082.75
2023-05-06T06:13:01.209Z,100081.06
2023-05-06T06:15:31.720Z,100081.31
2023-05-06T06:17:59.978Z,100078.44
2023-05-06T06:20:29.345Z,100080.03
2023-05-06T06:22:56.252Z,100086.63
2023-05-06T06:25:24.571Z,100090.72
2023-05-06T06:27:51.405Z,100093.19
2023-05-06T06:30:18.288Z,100098.34
2023-05-06T06:32:50.171Z,100099.59
2023-05-06T06:35:17.781Z,100093.47
2023-05-06T06:37:44.618Z,100098.25
2023-05-06T06:40:12.372Z,100093.59
2023-05-06T06:42:39.259Z,100092.31
2023-05-06T06:45:18.581Z,100085.97
2023-05-06T06:47:45.821Z,100092.88
2023-05-06T06:50:12.805Z,100093.38
2023-05-06T06:52:39.715Z,100097.22
2023-05-06T06:55:06.952Z,100111.97
2023-05-06T06:57:33.809Z,100104.13
2023-05-06T07:00:01.704Z,100110.03
2023-05-06T07:02:34.774Z,100115.84
2023-05-06T07:05:01.952Z,100110.28
2023-05-06T07:07:32.135Z,100118.22
2023-05-06T07:09:59.295Z,100107.09
2023-05-06T07:12:26.873Z,100111.63
2023-05-06T07:14:53.737Z,100114.25
2023-05-06T07:17:20.552Z,100110.50
2023-05-06T07:19:47.498Z,100109.81
2023-05-06T07:22:14.313Z,100113.94
2023-05-06T07:24:41.417Z,100113.22
2023-05-06T07:27:08.365Z,100111.53
2023-05-06T07:29:36.798Z,100101.53
2023-05-06T07:32:04.211Z,100105.47
2023-05-06T07:34:34.584Z,100108.69
2023-05-06T07:37:01.775Z,100107.56
2023-05-06T07:39:28.802Z,100120.63
2023-05-06T07:41:55.842Z,100119.50
2023-05-06T07:44:22.842Z,100103.91
2023-05-06T07:46:50.632Z,100107.31
2023-05-06T07:49:17.584Z,100112.31
2023-05-06T07:51:45.614Z,100104.13
2023-05-06T07:54:13.455Z,100118.94
2023-05-06T07:56:40.255Z,100125.00
2023-05-06T07:59:07.348Z,100110.97
2023-05-06T08:01:34.237Z,100104.69
2023-05-06T08:04:01.396Z,100103.41
2023-05-06T08:06:29.476Z,100108.59
2023-05-06T08:08:56.478Z,100098.16
2023-05-06T08:11:23.889Z,100113.03
2023-05-06T08:13:50.907Z,100110.81
2023-05-06T08:16:17.941Z,100123.06
2023-05-06T08:18:44.781Z,100113.03
2023-05-06T08:21:11.610Z,100116.44
2023-05-06T08:23:38.537Z,100115.22
2023-05-06T08:26:05.433Z,100112.56
2023-05-06T08:28:32.282Z,100118.88
2023-05-06T08:30:59.169Z,100113.78
2023-05-06T08:33:25.985Z,100118.34
2023-05-06T08:35:52.863Z,100113.53
2023-05-06T08:38:19.799Z,100116.34
2023-05-06T08:40:48.207Z,100120.03
2023-05-06T08:43:18.344Z,100121.47
2023-05-06T08:45:45.209Z,100129.69
2023-05-06T08:48:12.492Z,100135.19
2023-05-06T08:50:43.772Z,100121.06
2023-05-06T08:53:13.616Z,100121.88
2023-05-06T08:55:43.218Z,100120.06
2023-05-06T08:58:13.468Z,100123.19
2023-05-06T09:00:40.402Z,100115.56
2023-05-06T09:03:07.479Z,100117.72
2023-05-06T09:05:34.324Z,100115.66
2023-05-06T09:08:01.170Z,100098.28
2023-05-06T09:10:33.227Z,100124.63
2023-05-06T09:13:00.040Z,100110.91
2023-05-06T09:15:27.306Z,100106.63
2023-05-06T09:17:56.243Z,100111.38
2023-05-06T09:20:23.223Z,100108.56
2023-05-06T09:22:50.685Z,100107.72
2023-05-06T09:25:18.213Z,100101.00
2023-05-06T09:27:46.508Z,100101.25
2023-05-06T09:30:13.903Z,100114.91
2023-05-06T09:32:42.078Z,100116.25
2023-05-06T09:35:11.217Z,100114.94
2023-05-06T09:37:38.442Z,100117.47
2023-05-06T09:40:06.097Z,100109.91
2023-05-06T09:42:34.402Z,100108.47
2023-05-06T09:45:03.091Z,100108.84
2023-05-06T09:47:36.624Z,100109.75
2023-05-06T09:50:04.528Z,100108.50
2023-05-06T09:52:33.571Z,100107.88
2023-05-06T09:55:01.534Z,100108.47
2023-05-06T09:57:33.420Z,100116.00
2023-05-06T10:00:02.297Z,100110.19
2023-05-06T10:02:44.419Z,100108.84
2023-05-06T10:05:15.799Z,100108.13
2023-05-06T10:07:43.331Z,100105.00
2023-05-06T10:10:11.831Z,100101.25
2023-05-06T10:12:39.038Z,100107.25
2023-05-06T10:15:06.640Z,100107.50
2023-05-06T10:17:34.123Z,100101.28
2023-05-06T10:20:02.530Z,100101.47
2023-05-06T10:22:56.646Z,100100.63
2023-05-06T10:25:37.242Z,100100.63
2023-05-06T10:28:11.534Z,100094.09
2023-05-06T10:30:49.997Z,100100.06
2023-05-06T10:33:17.269Z,100091.84
2023-05-06T10:36:08.327Z,100087.53
2023-05-06T10:38:47.328Z,100087.59
2023-05-06T10:41:15.191Z,100079.81
2023-05-06T10:43:43.337Z,100080.88
2023-05-06T10:46:15.092Z,100077.22
2023-05-06T10:49:13.918Z,100080.19
2023-05-06T10:51:44.212Z,100078.69
2023-05-06T10:54:22.950Z,100071.09
2023-05-06T10:56:49.872Z,100072.25
2023-05-06T10:59:25.836Z,100063.75
2023-05-06T11:02:11.227Z,100065.34
2023-05-06T11:04:38.787Z,100064.94
2023-05-06T11:07:14.103Z,100063.22
2023-05-06T11:10:06.263Z,100063.22
2023-05-06T11:12:47.452Z,100059.75
2023-05-06T11:15:40.093Z,100063.81
2023-05-06T11:18:32.058Z,100055.09
2023-05-06T11:21:00.966Z,100054.91
2023-05-06T11:23:43.438Z,100054.03
2023-05-06T11:26:11.709Z,100056.41
2023-05-06T11:28:39.481Z,100058.13
2023-05-06T11:31:07.899Z,100048.19
2023-05-06T11:33:36.643Z,100052.38
2023-05-06T11:36:04.796Z,100055.09
2023-05-06T11:38:44.966Z,100051.44
2023-05-06T11:41:13.045Z,100051.91
2023-05-06T11:43:40.231Z,100052.03
2023-05-06T11:46:07.229Z,100052.63
2023-05-06T11:48:34.265Z,100049.09
2023-05-06T11:51:01.092Z,100045.56
2023-05-06T11:53:29.691Z,100040.94
2023-05-06T11:55:56.598Z,100042.50
2023-05-06T11:58:27.508Z,100041.16
2023-05-06T12:00:56.414Z,100037.00
2023-05-06T12:03:25.000Z,100036.44
2023-05-06T12:05:52.839Z,100026.13
2023-05-06T12:08:28.434Z,100028.28
2023-05-06T12:10:59.166Z,100025.59
2023-05-06T12:13:27.248Z,100019.75
2023-05-06T12:15:58.995Z,100022.41
2023-05-06T12:18:26.414Z,100018.88
2023-05-06T12:21:07.386Z,100017.69
2023-05-06T12:23:34.226Z,100012.38
2023-05-06T12:26:10.027Z,100003.22
2023-05-06T12:28:37.515Z,99996.13
2023-05-06T12:31:20.706Z,100005.78
2023-05-06T12:33:51.467Z,100005.72
2023-05-06T12:36:19.271Z,100002.06
2023-05-06T12:39:02.167Z,99998.41
2023-05-06T12:41:39.212Z,99998.94
2023-05-06T12:44:29.924Z,99998.91
2023-05-06T12:46:57.162Z,100003.91
2023-05-06T12:49:24.005Z,99990.75
2023-05-06T12:52:09.508Z,99985.28
2023-05-06T12:54:37.552Z,99989.22
2023-05-06T12:57:05.413Z,99980.81
2023-05-06T12:59:33.154Z,99996.66
2023-05-06T13:02:00.106Z,99990.16
2023-05-06T13:04:27.597Z,99982.88
2023-05-06T13:06:55.814Z,99975.84
2023-05-06T13:09:23.213Z,99970.91
2023-05-06T13:11:50.566Z,99972.78
2023-05-06T13:14:17.648Z,99981.16
2023-05-06T13:16:45.607Z,99978.72
2023-05-06T13:19:21.024Z,99988.31
2023-05-06T13:21:51.901Z,100005.53
2023-05-06T13:24:18.740Z,100006.88
2023-05-06T13:26:45.564Z,100023.03
2023-05-06T13:29:12.420Z,100047.53
2023-05-06T13:31:39.370Z,100040.47
2023-05-06T13:34:06.249Z,100036.34
2023-05-06T13:36:33.115Z,100033.97
2023-05-06T13:39:00.606Z,100032.91
2023-05-06T13:41:27.503Z,100030.31
2023-05-06T13:43:54.364Z,100023.72
2023-05-06T13:46:25.156Z,100015.72
2023-05-06T13:48:52.051Z,100015.25
2023-05-06T13:51:18.857Z,100012.00
2023-05-06T13:53:45.718Z,100011.97
2023-05-06T13:56:12.513Z,100009.13
2023-05-06T13:58:42.420Z,99999.63
2023-05-06T14:01:09.342Z,99994.34
2023-05-06T14:03:38.722Z,100000.13
2023-05-06T14:06:06.375Z,99994.94
2023-05-06T14:08:33.223Z,100000.22
2023-05-06T14:11:00.139Z,99996.00
2023-05-06T14:13:30.412Z,100004.53
2023-05-06T14:15:57.588Z,100008.31
2023-05-06T14:18:26.517Z,100009.16
2023-05-06T14:20:54.010Z,100014.94
2023-05-06T14:23:20.852Z,100020.47
2023-05-06T14:25:47.747Z,100013.19
2023-05-06T14:28:15.733Z,100021.69
2023-05-06T14:30:43.398Z,100015.44
2023-05-06T14:33:10.878Z,100010.69
2023-05-06T14:35:42.282Z,100009.63
2023-05-06T14:38:10.880Z,99997.16
2023-05-06T14:40:38.879Z,99990.56
2023-05-06T14:43:09.039Z,99992.91
2023-05-06T14:45:36.153Z,99999.06
2023-05-06T14:48:04.000Z,99994.63
2023-05-06T14:50:31.360Z,99991.75
2023-05-06T14:52:58.234Z,99988.88
2023-05-06T14:55:27.838Z,99984.94
2023-05-06T14:57:55.711Z,99986.53
2023-05-06T15:00:22.721Z,99992.63
2023-05-06T15:02:49.540Z,100000.78
2023-05-06T15:05:16.482Z,100001.84
2023-05-06T15:07:43.481Z,100011.06
2023-05-06T15:10:10.568Z,100038.16
2023-05-06T15:12:37.631Z,100043.41
2023-05-06T15:15:05.477Z,100042.88
2023-05-06T15:17:33.767Z,100040.78
2023-05-06T15:20:00.871Z,100037.06
2023-05-06T15:22:28.427Z,100037.03
2023-05-06T15:24:55.347Z,100025.47
2023-05-06T15:27:22.253Z,100018.34
2023-05-06T15:29:49.133Z,100012.34
2023-05-06T15:32:16.604Z,100011.28
2023-05-06T15:34:43.401Z,100017.84
2023-05-06T15:37:10.637Z,100016.81
2023-05-06T15:39:38.960Z,100014.94
2023-05-06T15:42:06.414Z,100004.69
2023-05-06T15:44:34.131Z,100000.69
2023-05-06T15:47:01.077Z,99999.69
2023-05-06T15:52:00.599Z,99994.41
2023-05-06T15:54:28.576Z,100005.53
2023-05-06T15:56:56.535Z,100002.09
2023-05-06T15:59:23.700Z,99998.91
2023-05-06T16:02:25.655Z,99992.59
2023-05-06T16:04:37.997Z,99991.81
2023-05-06T16:07:05.161Z,99991.84
2023-05-06T16:09:31.981Z,99985.50
2023-05-06T16:12:01.821Z,99983.94
2023-05-06T16:14:37.031Z,99983.94
2023-05-06T16:17:04.077Z,99976.81
2023-05-06T16:19:32.183Z,99968.66
2023-05-06T16:21:59.013Z,99971.81
2023-05-06T16:24:25.929Z,99970.19
2023-05-06T16:26:52.919Z,99971.25
2023-05-06T16:29:20.803Z,99973.88
2023-05-06T16:31:48.603Z,99980.13
2023-05-06T16:34:17.444Z,99976.47
2023-05-06T16:36:46.077Z,99973.84
2023-05-06T16:39:13.241Z,99967.78
2023-05-06T16:41:40.326Z,99966.47
2023-05-06T16:44:07.563Z,99956.75
2023-05-06T16:46:34.447Z,99959.09
2023-05-06T16:49:03.853Z,99956.75
2023-05-06T16:51:31.462Z,99966.47
2023-05-06T16:53:58.491Z,99967.78
2023-05-06T16:56:28.237Z,99966.22
2023-05-06T16:58:59.890Z,99960.63
2023-05-06T17:01:27.766Z,99963.28
2023-05-06T17:03:54.724Z,99969.31
2023-05-06T17:06:23.880Z,99968.22
2023-05-06T17:08:50.955Z,99973.22
2023-05-06T17:11:17.746Z,99970.59
2023-05-06T17:13:44.694Z,99979.75
2023-05-06T17:16:11.541Z,99976.28
2023-05-06T17:18:38.403Z,99975.50
2023-05-06T17:21:11.161Z,99972.88
2023-05-06T17:23:38.400Z,99975.97
2023-05-06T17:26:09.804Z,99988.00
2023-05-06T17:28:37.803Z,99988.25
2023-05-06T17:31:04.889Z,99987.94
2023-05-06T17:33:32.569Z,99993.34
2023-05-06T17:35:59.408Z,99992.00
2023-05-06T17:38:26.395Z,99998.56
2023-05-06T17:40:54.216Z,100003.81
2023-05-06T17:43:21.232Z,100002.22
2023-05-06T17:45:48.168Z,100005.09
2023-05-06T17:48:15.010Z,100000.56
2023-05-06T17:50:41.902Z,100004.44
2023-05-06T17:53:08.640Z,100010.47
2023-05-06T17:55:35.531Z,99997.50
2023-05-06T17:58:02.396Z,100001.69
2023-05-06T18:00:29.284Z,99996.16
2023-05-06T18:02:56.296Z,99986.91
2023-05-06T18:05:25.680Z,99990.03
2023-05-06T18:07:53.219Z,99986.00
2023-05-06T18:10:20.266Z,99987.06
2023-05-06T18:12:48.195Z,99991.72
2023-05-06T18:15:15.519Z,100000.56
2023-05-06T18:17:42.648Z,99999.19
2023-05-06T18:20:10.360Z,100000.75
2023-05-06T18:22:37.287Z,99999.41
2023-05-06T18:25:04.399Z,99997.25
2023-05-06T18:27:32.639Z,100014.53
2023-05-06T18:29:59.618Z,100009.78
2023-05-06T18:32:26.540Z,100013.69
2023-05-06T18:34:53.501Z,100025.69
2023-05-06T18:37:20.324Z,100026.44
2023-05-06T18:39:47.167Z,100036.94
2023-05-06T18:42:13.937Z,100038.75
2023-05-06T18:44:41.764Z,100040.59
2023-05-06T18:47:08.900Z,100040.09
2023-05-06T18:49:35.937Z,100039.06
2023-05-06T18:52:02.938Z,100034.88
2023-05-06T18:54:29.775Z,100037.47
2023-05-06T18:56:58.045Z,100046.88
2023-05-06T18:59:25.603Z,100044.19
2023-05-06T19:01:52.599Z,100044.13
2023-05-06T19:04:19.470Z,100043.00
2023-05-06T19:06:46.342Z,100047.47
2023-05-06T19:09:13.505Z,100043.25
2023-05-06T19:11:40.465Z,100049.03
2023-05-06T19:14:07.332Z,100045.88
2023-05-06T19:16:34.135Z,100050.31
2023-05-06T19:19:02.767Z,100048.72
2023-05-06T19:21:29.690Z,100046.34
2023-05-06T19:23:59.773Z,100044.50
2023-05-06T19:26:30.191Z,100042.88
2023-05-06T19:28:57.164Z,100049.16
2023-05-06T19:31:24.150Z,100062.25
2023-05-06T19:33:51.114Z,100060.66
2023-05-06T19:36:18.190Z,100056.72
2023-05-06T19:38:44.969Z,100057.16
2023-05-06T19:41:11.845Z,100057.41
2023-05-06T19:43:43.107Z,100057.34
2023-05-06T19:46:11.127Z,100060.22
2023-05-06T19:48:39.147Z,100063.06
2023-05-06T19:51:06.990Z,100067.50
2023-05-06T19:53:34.631Z,100055.69
2023-05-06T19:56:17.119Z,100051.88
2023-05-06T19:58:44.326Z,100055.75
2023-05-06T20:01:11.698Z,100056.25
2023-05-06T20:03:39.228Z,100049.91
2023-05-06T20:06:06.632Z,100053.22
2023-05-06T20:08:38.216Z,100048.97
2023-05-06T20:11:06.764Z,100045.75
2023-05-06T20:13:33.825Z,100049.38
2023-05-06T20:16:02.052Z,100042.59
2023-05-06T20:18:28.937Z,100044.16
2023-05-06T20:20:56.437Z,100034.25
2023-05-06T20:23:23.660Z,100035.59
2023-05-06T20:25:53.766Z,100036.94
2023-05-06T20:28:20.642Z,100034.97
2023-05-06T20:30:48.755Z,100039.16
2023-05-06T20:33:15.816Z,100042.88
2023-05-06T20:35:46.024Z,100045.28
2023-05-06T20:38:19.791Z,100050.84
2023-05-06T20:40:48.487Z,100044.00
2023-05-06T20:43:19.477Z,100043.53
2023-05-06T20:45:48.814Z,100043.53
2023-05-06T20:48:18.081Z,100051.97
2023-05-06T20:50:45.129Z,100051.47
2023-05-06T20:53:18.614Z,100053.84
2023-05-06T20:55:48.004Z,100054.41
2023-05-06T20:58:15.460Z,100056.00
2023-05-06T21:00:47.116Z,100058.38
2023-05-06T21:03:14.018Z,100046.88
2023-05-06T21:05:40.986Z,100051.63
2023-05-06T21:08:08.918Z,100050.81
2023-05-06T21:10:38.642Z,100052.19
2023-05-06T21:13:15.356Z,100054.31
2023-05-06T21:15:51.667Z,100047.97
2023-05-06T21:18:24.835Z,100048.06
2023-05-06T21:20:54.491Z,100049.09
2023-05-06T21:23:21.454Z,100040.44
2023-05-06T21:25:51.414Z,100054.53
2023-05-06T21:28:20.474Z,100055.91
2023-05-06T21:30:48.010Z,100052.50
2023-05-06T21:33:26.719Z,100052.25
2023-05-06T21:35:56.740Z,100055.13
2023-05-06T21:38:27.784Z,100053.28
2023-05-06T21:40:55.838Z,100052.25
2023-05-06T21:43:22.745Z,100059.63
2023-05-06T21:45:55.146Z,100052.25
2023-05-06T21:48:22.109Z,100045.72
2023-05-06T21:51:18.959Z,100051.63
2023-05-06T21:53:53.987Z,100045.97
2023-05-06T21:56:23.002Z,100044.13
2023-05-06T21:58:52.799Z,100041.28
2023-05-06T22:01:19.614Z,100049.38
2023-05-06T22:03:46.681Z,100049.38
2023-05-06T22:06:13.696Z,100051.69
2023-05-06T22:08:41.269Z,100046.66
2023-05-06T22:11:08.118Z,100049.56
2023-05-06T22:13:35.251Z,100042.72
2023-05-06T22:16:02.568Z,100046.59
2023-05-06T22:18:30.121Z,100042.91
2023-05-06T22:20:57.939Z,100040.97
2023-05-06T22:23:25.495Z,100046.16
2023-05-06T22:25:52.430Z,100048.69
2023-05-06T22:28:19.979Z,100052.28
2023-05-06T22:30:46.848Z,100055.59
2023-05-06T22:33:13.847Z,100051.06
2023-05-06T22:35:40.686Z,100051.06
2023-05-06T22:38:08.031Z,100051.06
2023-05-06T22:40:34.814Z,100051.63
2023-05-06T22:43:01.657Z,100049.56
2023-05-06T22:45:28.528Z,100054.78
2023-05-06T22:47:56.086Z,100048.00
2023-05-06T22:50:23.120Z,100049.03
2023-05-06T22:52:49.915Z,100040.38
2023-05-06T22:55:18.005Z,100039.56
2023-05-06T22:57:45.009Z,100036.38
2023-05-06T23:00:14.112Z,100032.75
2023-05-06T23:02:41.211Z,100027.50
2023-05-06T23:05:08.633Z,100031.72
2023-05-06T23:07:35.824Z,100029.09
2023-05-06T23:10:02.910Z,100033.03
2023-05-06T23:12:33.599Z,100030.97
2023-05-06T23:15:02.158Z,100025.97
2023-05-06T23:17:34.230Z,100022.81
2023-05-06T23:20:01.368Z,100028.28
2023-05-06T23:22:30.921Z,100019.53
2023-05-06T23:24:57.856Z,100021.06
2023-05-06T23:27:25.104Z,100022.22
2023-05-06T23:29:51.958Z,100027.16
2023-05-06T23:32:19.794Z,100020.50
2023-05-06T23:34:47.309Z,100026.69
2023-05-06T23:37:14.376Z,100018.75
2023-05-06T23:39:43.126Z,100017.06
2023-05-06T23:42:10.205Z,100019.03
2023-05-06T23:44:37.598Z,100013.69
2023-05-06T23:47:04.460Z,100024.88
2023-05-06T23:49:32.034Z,100015.31
2023-05-06T23:51:58.955Z,100019.44
2023-05-06T23:54:25.890Z,100013.31
2023-05-06T23:56:53.045Z,100010.59
2023-05-06T23:59:19.918Z,100005.28
